Ship Status Report: callsign WAM8729

sailwx.info

Track history (hours):
 
Tides and Currents Weather Stations Pressure Air Temp Water Temp Dewpoint Dewpoint Depression Visibility Wind Speed Wind Dir Waves Ship Positions

Callsign WAM8729 (name unknown)

Owner: REGENTS OF THE UNIVERSITY OF CALIFORNIA, OAKLAND, CA. More information available from US FCC via Universal Licensing System and Coast Guard Vessel Documentation Center.

Last reported at 2018-Jan-05 20:23 UTC. Time now 2018-Jan-21 18:12 UTC.
Position N 34°24' W 119°51'.
Warning: this ship's position is 15 days out of date.

Length 7 m.

Type: Diving. MMSI: 338140283.

Date/timePositionNaut miles runAvg speedWind from/ knotsBaromVisibWave heightAir tempDewpointWater temp
2018-Jan-05 20:23N 34°24' W 119°51'5 7.8
2018-Jan-05 19:41N 34°26' W 119°44'3 7.2
2018-Jan-05 19:20N 34°24' W 119°42'817.7
2018-Jan-05 18:55N 34°17' W 119°42'922.1
2018-Jan-05 18:30N 34°08' W 119°42'6 8.0
2018-Jan-05 17:44N 34°02' W 119°42'0 0.2
2018-Jan-05 17:29N 34°02' W 119°42'0 0.3
2018-Jan-05 16:57N 34°02' W 119°42'1319.6
2018-Jan-05 16:18N 34°15' W 119°41'723.7
2018-Jan-05 15:59N 34°22' W 119°41'8 0.4
2018-Jan-04 22:08N 34°25' W 119°50'0 2.2
2018-Jan-04 21:59N 34°25' W 119°50'816.3
2018-Jan-04 21:30N 34°19' W 119°44'1326.0
2018-Jan-04 21:00N 34°06' W 119°47'610.9
2018-Jan-04 20:28N 34°12' W 119°48'1324.5
2018-Jan-04 19:55N 34°25' W 119°50'0 0.0
2018-Jan-03 19:26N 34°25' W 119°50'0 0.8
2018-Jan-03 18:56N 34°25' W 119°50'0 0.7
2018-Jan-03 18:22N 34°24' W 119°50'410.0
2018-Jan-03 17:58N 34°25' W 119°54'1 1.1
2018-Jan-03 17:07N 34°26' W 119°55'0 0.0
2018-Jan-03 16:57N 34°26' W 119°55'510.2
2018-Jan-03 16:29N 34°25' W 119°50'  
2017-Dec-27 19:53N 34°24' W 119°51'0 0.0
2017-Dec-27 19:29N 34°24' W 119°51'1 1.4
2017-Dec-27 18:54N 34°25' W 119°50'0 1.0
2017-Dec-27 18:31N 34°25' W 119°50'  
Track history (hours):
 
Tides and Currents Weather Stations Pressure Air Temp Water Temp Dewpoint Dewpoint Depression Visibility Wind Speed Wind Dir Waves Ship Positions

Callsign WAM8729 (name unknown)

Owner: REGENTS OF THE UNIVERSITY OF CALIFORNIA, OAKLAND, CA. More information available from US FCC via Universal Licensing System and Coast Guard Vessel Documentation Center.

Last reported at 2018-Jan-05 20:23 UTC. Time now 2018-Jan-21 18:12 UTC.
Position N 34°24' W 119°51'.
Warning: this ship's position is 15 days out of date.

Length 7 m.

Type: Diving. MMSI: 338140283.

Date/timePositionNaut miles runAvg speedWind from/ knotsBaromVisibWave heightAir tempDewpointWater temp
2018-Jan-05 20:23N 34°24' W 119°51'5 7.8
2018-Jan-05 19:41N 34°26' W 119°44'3 7.2
2018-Jan-05 19:20N 34°24' W 119°42'817.7
2018-Jan-05 18:55N 34°17' W 119°42'922.1
2018-Jan-05 18:30N 34°08' W 119°42'6 8.0
2018-Jan-05 17:44N 34°02' W 119°42'0 0.2
2018-Jan-05 17:29N 34°02' W 119°42'0 0.3
2018-Jan-05 16:57N 34°02' W 119°42'1319.6
2018-Jan-05 16:18N 34°15' W 119°41'723.7
2018-Jan-05 15:59N 34°22' W 119°41'8 0.4
2018-Jan-04 22:08N 34°25' W 119°50'0 2.2
2018-Jan-04 21:59N 34°25' W 119°50'816.3
2018-Jan-04 21:30N 34°19' W 119°44'1326.0
2018-Jan-04 21:00N 34°06' W 119°47'610.9
2018-Jan-04 20:28N 34°12' W 119°48'1324.5
2018-Jan-04 19:55N 34°25' W 119°50'0 0.0
2018-Jan-03 19:26N 34°25' W 119°50'0 0.8
2018-Jan-03 18:56N 34°25' W 119°50'0 0.7
2018-Jan-03 18:22N 34°24' W 119°50'410.0
2018-Jan-03 17:58N 34°25' W 119°54'1 1.1
2018-Jan-03 17:07N 34°26' W 119°55'0 0.0
2018-Jan-03 16:57N 34°26' W 119°55'510.2
2018-Jan-03 16:29N 34°25' W 119°50'  
2017-Dec-27 19:53N 34°24' W 119°51'0 0.0
2017-Dec-27 19:29N 34°24' W 119°51'1 1.4
2017-Dec-27 18:54N 34°25' W 119°50'0 1.0
2017-Dec-27 18:31N 34°25' W 119°50'  

Dump ship's entire track history